Time;durP1;ratioP1;P1;durP2;ratioP2;P2;SDS_P1;SDS_P2;PMS_P1;PMS_P2;Temp;Humidity;BMP_temperature;BMP_pressure;BME280_temperature;BME280_humidity;BME280_pressure;Samples;Min_cycle;Max_cycle;Signal;HPM_P1;HPM_P2
2022/04/16 00:01:37;;;;;;;22.55;9.93;;;;;;;14.03;42.52;94861.19;5001637;28;20247;-57
2022/04/16 00:04:02;;;;;;;15.85;8.95;;;;;;;13.94;42.58;94868.34;4995129;28;20225;-57
2022/04/16 00:06:28;;;;;;;21.13;9.77;;;;;;;13.94;43.25;94878.94;5012699;28;20218;-56
2022/04/16 00:08:53;;;;;;;17.67;9.10;;;;;;;13.83;43.15;94869.59;5020382;28;20212;-57
2022/04/16 00:11:19;;;;;;;14.68;7.47;;;;;;;13.92;42.46;94865.06;5015999;28;20234;-57
2022/04/16 00:13:46;;;;;;;13.13;8.15;;;;;;;14.07;42.05;94862.50;5012267;28;20222;-57
2022/04/16 00:16:12;;;;;;;15.38;8.90;;;;;;;14.11;42.23;94866.41;5020578;28;20226;-57
2022/04/16 00:18:37;;;;;;;18.08;8.27;;;;;;;13.97;41.81;94854.78;5013842;28;20279;-58
2022/04/16 00:21:05;;;;;;;19.17;7.85;;;;;;;13.85;42.19;94853.56;5017096;28;20245;-57
2022/04/16 00:23:30;;;;;;;19.73;8.50;;;;;;;13.53;43.97;94865.16;5011277;28;20252;-57
2022/04/16 00:25:56;;;;;;;13.02;8.05;;;;;;;13.56;44.02;94870.09;5016812;28;20309;-57
2022/04/16 00:28:35;;;;;;;16.63;7.78;;;;;;;13.54;43.80;94870.25;5014752;28;20589;-57
2022/04/16 00:31:01;;;;;;;12.20;7.75;;;;;;;13.30;44.28;94870.38;4996633;28;20231;-56
2022/04/16 00:33:26;;;;;;;18.27;8.80;;;;;;;13.29;44.06;94863.47;4976100;28;20231;-59
2022/04/16 00:35:52;;;;;;;17.23;7.82;;;;;;;13.34;44.01;94861.94;4977326;28;20207;-59
2022/04/16 00:38:18;;;;;;;13.57;8.13;;;;;;;13.24;44.40;94864.75;4994076;28;20262;-58
2022/04/16 00:40:43;;;;;;;14.80;8.40;;;;;;;13.17;44.75;94860.34;4985602;28;20296;-58
2022/04/16 00:43:20;;;;;;;13.93;8.05;;;;;;;13.08;44.45;94870.09;4975032;28;20758;-58
2022/04/16 00:45:47;;;;;;;15.40;8.38;;;;;;;13.13;44.16;94865.16;4970155;28;20579;-57
2022/04/16 00:48:13;;;;;;;10.65;7.97;;;;;;;13.08;43.67;94864.81;4959010;28;20206;-57
2022/04/16 00:50:39;;;;;;;11.38;7.82;;;;;;;12.96;43.58;94859.09;4986179;28;20204;-57
2022/04/16 00:53:05;;;;;;;13.52;8.07;;;;;;;13.01;43.42;94850.66;4974940;28;20224;-57
2022/04/16 00:55:36;;;;;;;12.23;6.78;;;;;;;13.01;43.09;94846.19;4967507;28;20344;-58
2022/04/16 00:58:01;;;;;;;9.65;7.22;;;;;;;13.11;42.53;94850.47;4978791;28;20232;-57
2022/04/16 01:00:27;;;;;;;9.23;6.88;;;;;;;13.08;42.31;94851.63;4981338;28;20350;-57
2022/04/16 01:02:54;;;;;;;11.30;7.38;;;;;;;13.06;42.41;94847.50;4973961;28;20207;-57
2022/04/16 01:05:21;;;;;;;9.13;6.22;;;;;;;12.99;42.84;94840.28;4986111;28;20762;-57
2022/04/16 01:07:56;;;;;;;9.65;6.72;;;;;;;13.13;42.46;94846.66;4985750;28;20319;-57
2022/04/16 01:10:26;;;;;;;10.15;6.10;;;;;;;12.89;42.59;94834.38;4992997;28;20258;-56
2022/04/16 01:12:57;;;;;;;9.77;6.53;;;;;;;12.96;42.60;94842.44;4988609;28;20255;-57
2022/04/16 01:15:24;;;;;;;11.05;6.60;;;;;;;12.79;43.27;94841.66;4980091;28;20540;-57
2022/04/16 01:17:51;;;;;;;8.52;6.57;;;;;;;12.84;43.22;94835.88;4996301;28;20195;-56
2022/04/16 01:20:18;;;;;;;12.18;6.95;;;;;;;12.85;43.70;94843.63;4983168;28;20247;-57
2022/04/16 01:22:48;;;;;;;10.48;7.70;;;;;;;12.57;44.94;94844.03;4982357;28;20282;-57
2022/04/16 01:25:14;;;;;;;9.60;8.30;;;;;;;12.54;44.26;94852.28;4971302;28;20222;-56
2022/04/16 01:27:45;;;;;;;12.30;7.68;;;;;;;12.67;43.66;94840.38;4978294;28;20230;-58
2022/04/16 01:30:11;;;;;;;11.23;7.45;;;;;;;12.63;44.17;94847.81;4980472;28;20247;-57
2022/04/16 01:32:37;;;;;;;9.90;7.05;;;;;;;12.35;45.13;94845.56;4983764;28;20237;-57
2022/04/16 01:35:05;;;;;;;12.55;8.10;;;;;;;12.29;45.51;94854.09;4978252;28;20231;-57
2022/04/16 01:37:34;;;;;;;11.75;7.32;;;;;;;12.46;44.80;94846.22;4984478;28;20251;-58
2022/04/16 01:40:00;;;;;;;11.25;7.63;;;;;;;12.47;44.88;94842.56;4967077;28;20293;-58
2022/04/16 01:42:29;;;;;;;9.75;7.22;;;;;;;12.32;45.18;94856.44;4975469;28;20212;-57
2022/04/16 01:44:56;;;;;;;11.15;7.80;;;;;;;12.30;45.53;94862.88;4962721;28;20570;-56
2022/04/16 01:47:21;;;;;;;12.68;7.47;;;;;;;12.04;45.87;94860.41;4975774;28;20238;-56
2022/04/16 01:49:47;;;;;;;12.30;6.68;;;;;;;12.06;46.02;94861.06;4958463;28;20228;-57
2022/04/16 01:52:13;;;;;;;10.70;6.72;;;;;;;12.16;45.12;94859.06;4960106;28;20308;-57
2022/04/16 01:54:41;;;;;;;9.23;6.57;;;;;;;12.27;44.73;94853.47;4962649;28;20216;-57
2022/04/16 01:57:06;;;;;;;6.75;6.05;;;;;;;12.15;45.45;94860.06;4962787;28;20256;-57
2022/04/16 01:59:32;;;;;;;11.23;6.55;;;;;;;12.29;44.10;94845.38;4943752;28;20220;-57
2022/04/16 02:01:58;;;;;;;13.15;7.30;;;;;;;12.17;44.83;94846.72;4940682;28;20698;-57
2022/04/16 02:04:24;;;;;;;9.50;6.60;;;;;;;12.26;44.65;94845.72;4949823;28;20232;-57
2022/04/16 02:06:51;;;;;;;9.80;6.53;;;;;;;12.23;45.07;94841.59;4959003;28;20233;-57
2022/04/16 02:09:19;;;;;;;13.70;6.93;;;;;;;12.14;45.55;94847.88;4953446;28;20218;-58
2022/04/16 02:11:44;;;;;;;12.77;6.75;;;;;;;12.12;45.62;94848.03;4949116;28;20197;-57
2022/04/16 02:14:10;;;;;;;12.15;6.97;;;;;;;12.19;45.66;94840.31;4948243;28;20259;-57
2022/04/16 02:16:35;;;;;;;12.75;7.03;;;;;;;12.07;45.98;94847.69;4963322;28;20233;-57
2022/04/16 02:19:00;;;;;;;11.55;6.68;;;;;;;12.03;45.92;94848.19;4945514;28;20345;-57
2022/04/16 02:21:27;;;;;;;9.60;6.60;;;;;;;12.00;46.46;94851.16;4941778;28;20303;-55
2022/04/16 02:23:53;;;;;;;14.23;7.28;;;;;;;12.14;46.15;94853.16;4954571;28;20304;-57
2022/04/16 02:26:20;;;;;;;12.05;6.82;;;;;;;12.04;46.31;94848.03;4957417;28;20292;-57
2022/04/16 02:28:48;;;;;;;14.27;7.63;;;;;;;11.91;46.81;94855.59;4945610;28;20234;-56
2022/04/16 02:31:14;;;;;;;12.25;7.47;;;;;;;11.92;46.36;94854.59;4948443;28;20220;-57
2022/04/16 02:33:40;;;;;;;11.80;7.25;;;;;;;11.91;46.88;94845.06;4945254;28;20250;-57
2022/04/16 02:36:07;;;;;;;12.85;7.32;;;;;;;11.87;46.65;94847.22;4950338;28;20204;-56
2022/04/16 02:38:33;;;;;;;12.40;7.63;;;;;;;11.80;46.71;94846.19;4945350;28;20264;-57
2022/04/16 02:40:59;;;;;;;11.82;6.95;;;;;;;11.85;46.58;94848.34;4948959;28;20233;-57
2022/04/16 02:43:24;;;;;;;12.30;7.40;;;;;;;11.77;46.66;94848.31;4948157;28;20524;-57
2022/04/16 02:48:34;;;;;;;13.63;7.35;;;;;;;12.01;46.06;94852.81;4949933;28;20695;-56
2022/04/16 02:50:59;;;;;;;13.90;7.93;;;;;;;12.00;45.95;94840.63;4959680;28;20210;-56
2022/04/16 02:53:26;;;;;;;11.65;8.10;;;;;;;11.90;46.12;94843.44;4946107;28;20229;-57
2022/04/16 02:55:55;;;;;;;12.77;7.22;;;;;;;11.79;45.33;94844.53;4949145;28;20312;-57
2022/04/16 02:58:21;;;;;;;10.80;6.28;;;;;;;11.77;45.05;94848.31;4958325;28;20228;-57
2022/04/16 03:00:46;;;;;;;7.82;5.93;;;;;;;11.67;44.53;94851.09;4949210;28;20233;-56
2022/04/16 03:03:12;;;;;;;8.63;6.07;;;;;;;11.69;44.29;94859.66;4947012;28;20212;-58
2022/04/16 03:05:37;;;;;;;9.02;6.35;;;;;;;11.53;44.89;94849.94;4942308;28;20582;-57
2022/04/16 03:08:06;;;;;;;8.95;6.00;;;;;;;11.53;45.09;94863.09;4945346;28;20218;-57
2022/04/16 03:10:31;;;;;;;8.60;6.22;;;;;;;11.60;44.87;94863.25;4947314;28;20233;-57
2022/04/16 03:12:57;;;;;;;8.15;6.47;;;;;;;11.57;45.24;94859.13;4959522;28;20235;-58
2022/04/16 03:18:08;;;;;;;10.48;6.60;;;;;;;11.45;46.17;94855.19;4946091;28;20252;-58
2022/04/16 03:20:33;;;;;;;10.15;6.28;;;;;;;11.48;46.15;94857.50;4953918;28;20347;-58
2022/04/16 03:22:59;;;;;;;11.20;6.60;;;;;;;11.32;46.44;94862.72;4946089;28;20319;-56
2022/04/16 03:25:27;;;;;;;12.10;6.95;;;;;;;11.32;46.57;94868.78;4944568;28;20287;-57
2022/04/16 03:27:53;;;;;;;19.13;7.72;;;;;;;11.02;47.67;94857.03;4941290;28;20233;-57
2022/04/16 03:30:19;;;;;;;10.75;6.85;;;;;;;11.10;48.36;94864.13;4936736;28;20205;-58
2022/04/16 03:32:49;;;;;;;11.93;5.80;;;;;;;11.15;47.75;94867.09;4943491;28;20672;-58
2022/04/16 03:35:18;;;;;;;18.42;7.95;;;;;;;11.16;47.33;94861.66;4943742;28;20237;-58
2022/04/16 03:37:44;;;;;;;16.10;7.57;;;;;;;11.04;47.76;94871.66;4942674;28;20406;-58
2022/04/16 03:40:12;;;;;;;13.18;7.70;;;;;;;10.97;47.83;94872.44;4947293;28;20223;-57
2022/04/16 03:43:06;;;;;;;20.05;7.03;;;;;;;11.17;46.97;94880.91;4947106;28;20229;-58
2022/04/16 03:45:34;;;;;;;12.88;6.25;;;;;;;10.93;47.70;94893.00;4938940;28;20315;-58
2022/04/16 03:48:02;;;;;;;10.55;6.03;;;;;;;11.01;47.17;94879.88;4922414;28;20243;-58
2022/04/16 03:50:29;;;;;;;13.88;7.03;;;;;;;11.09;47.06;94884.31;4953750;28;20244;-57
2022/04/16 03:52:56;;;;;;;11.27;6.25;;;;;;;11.09;47.02;94891.41;4941097;28;20318;-57
2022/04/16 04:00:55;;;;;;;9.10;6.70;;;;;;;11.09;47.17;94900.13;4964361;28;20237;-58
2022/04/16 04:03:21;;;;;;;15.00;7.13;;;;;;;11.23;46.61;94911.88;4946169;28;20221;-57
2022/04/16 04:05:49;;;;;;;12.52;7.28;;;;;;;11.29;47.00;94910.41;4939741;28;20204;-58
2022/04/16 04:08:16;;;;;;;19.75;8.00;;;;;;;11.23;46.95;94917.13;4955177;28;20274;-57
2022/04/16 04:10:41;;;;;;;17.13;7.65;;;;;;;11.18;46.48;94916.78;4962357;28;20228;-57
2022/04/16 04:13:07;;;;;;;20.02;7.60;;;;;;;11.16;46.78;94913.47;4957401;28;20215;-57
2022/04/16 04:15:32;;;;;;;22.55;9.40;;;;;;;11.40;46.75;94918.84;4944955;28;20224;-57
2022/04/16 04:17:59;;;;;;;16.92;8.15;;;;;;;11.19;47.64;94921.06;4945134;28;20750;-57
2022/04/16 04:20:26;;;;;;;15.77;8.32;;;;;;;11.18;48.07;94916.78;4955067;28;20259;-57
2022/04/16 04:22:52;;;;;;;20.98;7.85;;;;;;;11.02;49.11;94912.28;4968535;28;20282;-57
2022/04/16 04:25:17;;;;;;;13.43;7.25;;;;;;;11.07;49.70;94911.81;4964657;28;20310;-57
2022/04/16 04:27:43;;;;;;;12.63;7.10;;;;;;;11.40;48.90;94918.03;4973046;28;20296;-57
2022/04/16 04:30:10;;;;;;;12.00;6.75;;;;;;;11.33;48.30;94922.25;4962515;28;20208;-55
2022/04/16 04:32:38;;;;;;;12.63;6.95;;;;;;;10.93;48.96;94915.81;4961293;28;20232;-57
2022/04/16 04:35:05;;;;;;;10.05;6.78;;;;;;;11.01;49.89;94921.97;4955433;28;20236;-57
2022/04/16 04:37:31;;;;;;;11.50;7.32;;;;;;;11.04;49.55;94907.69;4970109;28;20295;-58
2022/04/16 04:39:56;;;;;;;10.77;7.32;;;;;;;11.18;49.42;94908.88;4963985;28;20527;-58
2022/04/16 04:42:30;;;;;;;14.90;7.38;;;;;;;11.24;48.63;94913.50;4969642;28;20215;-57
2022/04/16 04:44:56;;;;;;;12.55;7.65;;;;;;;11.32;48.71;94925.88;4968096;28;20303;-58
2022/04/16 04:47:21;;;;;;;12.27;7.53;;;;;;;11.39;48.55;94933.00;4976370;28;20212;-57
2022/04/16 04:49:47;;;;;;;16.77;7.63;;;;;;;11.48;48.91;94933.84;4959239;28;20830;-57
2022/04/16 04:52:26;;;;;;;14.35;8.75;;;;;;;11.57;47.89;94932.06;4965415;28;20256;-58
2022/04/16 04:54:53;;;;;;;16.67;9.02;;;;;;;11.61;47.36;94941.31;4962766;28;20228;-58
2022/04/16 04:57:18;;;;;;;14.73;8.98;;;;;;;11.74;47.22;94933.78;4967301;28;20221;-57
2022/04/16 04:59:44;;;;;;;17.42;10.32;;;;;;;11.78;46.53;94937.72;4963803;28;20212;-59
2022/04/16 05:02:10;;;;;;;21.60;11.05;;;;;;;11.78;46.46;94947.44;4957952;28;20240;-59
2022/04/16 05:04:35;;;;;;;21.88;11.20;;;;;;;11.94;46.06;94951.94;4952347;28;20233;-59
2022/04/16 05:07:03;;;;;;;16.83;10.55;;;;;;;11.88;45.43;94940.25;4958133;28;20315;-57
2022/04/16 05:09:28;;;;;;;17.05;9.50;;;;;;;12.04;44.32;94942.09;4945552;28;20213;-56
2022/04/16 05:11:54;;;;;;;13.52;8.48;;;;;;;12.07;43.60;94942.59;4956705;28;20212;-57
2022/04/16 05:14:20;;;;;;;9.18;7.95;;;;;;;12.07;43.09;94933.84;4945157;28;20224;-57
2022/04/16 05:16:46;;;;;;;10.25;7.78;;;;;;;12.10;43.20;94931.72;4939639;28;20225;-58
2022/04/16 05:19:12;;;;;;;11.43;8.00;;;;;;;12.22;42.85;94928.78;4965572;28;20232;-58
2022/04/16 05:21:37;;;;;;;12.02;8.20;;;;;;;12.33;42.25;94929.25;4971198;28;20379;-59
2022/04/16 05:24:06;;;;;;;12.32;8.10;;;;;;;12.36;42.10;94926.28;4977116;28;20207;-62
2022/04/16 05:26:32;;;;;;;12.35;9.10;;;;;;;12.50;41.82;94931.91;4969209;28;20290;-60
2022/04/16 05:28:57;;;;;;;13.85;8.32;;;;;;;12.59;41.37;94930.91;4967445;28;20232;-60
2022/04/16 05:31:26;;;;;;;11.82;8.20;;;;;;;12.69;41.17;94923.63;4961816;28;20699;-60
2022/04/16 05:36:38;;;;;;;13.10;7.88;;;;;;;12.78;41.22;94924.47;4967907;28;20235;-58
2022/04/16 05:39:04;;;;;;;14.32;8.65;;;;;;;12.81;41.35;94929.41;4969027;28;20281;-59
2022/04/16 05:41:33;;;;;;;12.55;8.18;;;;;;;12.86;41.18;94927.09;4971507;28;20221;-59
2022/04/16 05:43:58;;;;;;;14.45;8.30;;;;;;;12.91;41.38;94921.28;4972097;28;20286;-61
2022/04/16 05:46:24;;;;;;;11.82;7.40;;;;;;;13.01;41.17;94921.91;4971241;28;20273;-61
2022/04/16 05:48:49;;;;;;;16.60;8.27;;;;;;;13.04;41.06;94926.84;4962556;28;20240;-61
2022/04/16 05:51:15;;;;;;;13.18;8.70;;;;;;;12.98;41.14;94919.63;4964722;28;20213;-61
2022/04/16 05:53:41;;;;;;;14.35;8.35;;;;;;;13.10;41.25;94922.75;4968060;28;20216;-58
2022/04/16 05:56:08;;;;;;;13.90;8.50;;;;;;;13.24;40.57;94917.56;4973408;28;20228;-60
2022/04/16 05:58:33;;;;;;;13.63;8.68;;;;;;;13.21;40.69;94919.75;4968136;28;20232;-58
2022/04/16 06:01:00;;;;;;;13.18;8.20;;;;;;;13.32;40.75;94916.75;4968868;28;20217;-58
2022/04/16 06:03:25;;;;;;;10.23;8.82;;;;;;;13.53;40.29;94915.34;4958655;28;20326;-58
2022/04/16 06:05:52;;;;;;;18.20;9.65;;;;;;;13.75;40.57;94911.94;4965904;28;20678;-65
2022/04/16 06:08:18;;;;;;;20.38;9.60;;;;;;;13.79;39.54;94917.69;4978944;28;20714;-66
2022/04/16 06:10:44;;;;;;;12.95;7.82;;;;;;;13.94;39.51;94908.00;4975267;28;20235;-63
2022/04/16 06:13:11;;;;;;;16.10;7.85;;;;;;;14.07;38.81;94910.91;4970520;28;20283;-62
2022/04/16 06:15:41;;;;;;;10.95;7.28;;;;;;;14.26;37.58;94911.44;4965264;28;20220;-62
2022/04/16 06:18:08;;;;;;;10.18;6.00;;;;;;;14.46;35.95;94909.97;4968867;28;21033;-63
2022/04/16 06:20:33;;;;;;;10.57;4.90;;;;;;;14.54;33.41;94909.91;4964638;28;20248;-64
2022/04/16 06:22:59;;;;;;;9.25;4.90;;;;;;;14.64;32.96;94908.84;4968535;28;20243;-63
2022/04/16 06:25:24;;;;;;;6.07;3.83;;;;;;;14.67;32.05;94909.28;4963037;28;20665;-63
2022/04/16 06:27:50;;;;;;;7.15;4.57;;;;;;;14.71;32.79;94913.22;4961445;28;20319;-62
2022/04/16 06:30:16;;;;;;;8.23;4.50;;;;;;;14.85;31.83;94910.78;4963824;28;20212;-63
2022/04/16 06:32:41;;;;;;;8.70;4.30;;;;;;;14.85;31.47;94908.97;4979738;28;20660;-63
2022/04/16 06:35:08;;;;;;;7.38;4.30;;;;;;;14.82;32.38;94898.75;4976597;28;20594;-62
2022/04/16 06:37:34;;;;;;;5.40;4.53;;;;;;;14.92;31.90;94901.94;4966253;28;20279;-62
2022/04/16 06:40:00;;;;;;;8.73;4.50;;;;;;;15.07;30.99;94904.59;4973045;28;20733;-62
2022/04/16 06:42:26;;;;;;;6.75;4.18;;;;;;;15.11;31.49;94897.13;4970345;28;20272;-62
2022/04/16 06:44:52;;;;;;;8.90;4.55;;;;;;;15.22;31.25;94894.00;4968537;28;20208;-62
2022/04/16 06:47:18;;;;;;;5.38;3.88;;;;;;;15.32;31.30;94894.56;4964920;28;20232;-62
2022/04/16 06:49:43;;;;;;;8.55;4.05;;;;;;;15.31;31.57;94897.38;4961039;28;20225;-63
2022/04/16 06:52:09;;;;;;;7.03;4.70;;;;;;;15.40;30.99;94891.81;4953309;28;20223;-62
2022/04/16 06:54:36;;;;;;;5.25;4.32;;;;;;;15.49;30.71;94897.00;4960791;28;20223;-62
2022/04/16 06:57:02;;;;;;;6.65;4.57;;;;;;;15.54;32.16;94898.09;4973390;28;20197;-63
2022/04/16 06:59:27;;;;;;;15.18;4.60;;;;;;;15.60;30.94;94891.22;4971816;28;20289;-63
2022/04/16 07:01:53;;;;;;;8.38;4.65;;;;;;;15.57;31.35;94888.94;4959972;28;20259;-63
2022/04/16 07:04:18;;;;;;;5.90;4.40;;;;;;;15.58;30.91;94887.94;4966367;28;20217;-63
2022/04/16 07:06:44;;;;;;;7.90;4.30;;;;;;;15.66;31.08;94887.81;4959694;28;20228;-63
2022/04/16 07:09:40;;;;;;;;;;;;;;;;;;;;;
2022/04/16 07:11:55;;;;;;;6.03;4.55;;;;;;;15.88;30.48;94892.19;4953465;28;20309;-63
2022/04/16 07:14:21;;;;;;;7.25;4.50;;;;;;;15.95;30.88;94894.09;4956951;28;20216;-66
2022/04/16 07:16:47;;;;;;;10.25;4.97;;;;;;;16.13;30.74;94880.41;4965990;28;20227;-66
2022/04/16 07:19:12;;;;;;;7.50;4.55;;;;;;;16.31;30.05;94892.22;4956154;28;20695;-61
2022/04/16 07:21:38;;;;;;;6.18;4.50;;;;;;;16.44;30.30;94885.38;4950999;28;20232;-62
2022/04/16 07:24:04;;;;;;;5.45;4.72;;;;;;;16.58;30.92;94878.38;4933987;28;20550;-62
2022/04/16 07:26:29;;;;;;;10.40;5.55;;;;;;;16.60;29.90;94882.47;4972478;28;20278;-63
2022/04/16 07:28:55;;;;;;;9.68;5.47;;;;;;;16.56;30.22;94883.03;4974411;28;20235;-63
2022/04/16 07:31:20;;;;;;;11.32;5.70;;;;;;;16.53;29.88;94885.06;4958057;28;20268;-62
2022/04/16 07:33:46;;;;;;;6.78;5.75;;;;;;;16.44;30.14;94890.69;4951299;28;20216;-62
2022/04/16 07:36:11;;;;;;;9.00;6.07;;;;;;;16.46;32.21;94876.22;4963528;28;20222;-63
2022/04/16 07:38:37;;;;;;;9.48;5.85;;;;;;;16.64;30.55;94877.59;4982297;28;20303;-62
2022/04/16 07:41:03;;;;;;;7.63;5.30;;;;;;;16.58;30.34;94876.53;4973806;28;20228;-62
2022/04/16 07:43:33;;;;;;;8.68;5.35;;;;;;;16.57;30.44;94890.78;4985500;28;20224;-63
2022/04/16 07:45:58;;;;;;;8.77;5.53;;;;;;;16.51;30.90;94878.31;4965928;28;20235;-62
2022/04/16 07:48:24;;;;;;;7.07;5.25;;;;;;;16.43;30.75;94873.94;4982014;28;20215;-62
2022/04/16 07:50:49;;;;;;;9.18;5.32;;;;;;;16.57;30.50;94866.91;4969919;28;20726;-64
2022/04/16 07:53:15;;;;;;;7.95;5.55;;;;;;;16.72;30.73;94875.59;4955786;28;20741;-69
2022/04/16 07:55:40;;;;;;;7.78;5.20;;;;;;;16.75;30.80;94863.78;4951928;28;20259;-59
2022/04/16 07:58:06;;;;;;;9.73;5.40;;;;;;;16.86;30.56;94859.81;4946874;28;20233;-59
2022/04/16 08:00:31;;;;;;;6.22;4.72;;;;;;;16.93;30.41;94863.31;4948385;28;20240;-60
2022/04/16 08:02:57;;;;;;;6.10;4.65;;;;;;;17.00;29.96;94856.22;4958815;28;20805;-70
2022/04/16 08:05:22;;;;;;;8.02;5.32;;;;;;;17.04;30.31;94846.84;4961848;28;20290;-69
2022/04/16 08:07:49;;;;;;;9.93;4.90;;;;;;;17.02;30.39;94854.19;4963649;28;20276;-70
2022/04/16 08:10:15;;;;;;;5.68;4.63;;;;;;;16.87;29.99;94856.16;4965917;28;20331;-71
2022/04/16 08:12:40;;;;;;;9.40;5.82;;;;;;;16.76;30.82;94852.16;4965682;28;20224;-70
2022/04/16 08:15:06;;;;;;;7.35;5.15;;;;;;;16.74;30.45;94857.66;4967487;28;20200;-58
2022/04/16 08:17:32;;;;;;;8.95;5.00;;;;;;;16.80;30.32;94850.78;4957936;28;20252;-59
2022/04/16 08:19:58;;;;;;;6.93;4.82;;;;;;;16.69;29.92;94851.28;4961509;28;20224;-59
2022/04/16 08:22:23;;;;;;;6.63;4.72;;;;;;;16.59;30.08;94848.97;4945485;28;20247;-63
2022/04/16 08:27:35;;;;;;;8.65;5.00;;;;;;;16.87;30.38;94829.59;4948655;28;20266;-62
2022/04/16 08:30:00;;;;;;;9.18;5.38;;;;;;;16.83;30.15;94829.13;4976439;28;20575;-66
2022/04/16 08:32:26;;;;;;;8.38;5.25;;;;;;;16.87;30.70;94841.03;4965702;28;20265;-67
2022/04/16 08:34:52;;;;;;;6.28;5.13;;;;;;;16.84;30.57;94841.44;4969040;28;20228;-65
2022/04/16 08:37:18;;;;;;;6.75;4.82;;;;;;;16.94;31.09;94836.56;4971168;28;20224;-58
2022/04/16 08:39:43;;;;;;;6.85;4.93;;;;;;;17.10;30.40;94832.75;4964313;28;20362;-58
2022/04/16 08:42:09;;;;;;;6.85;4.90;;;;;;;17.12;29.52;94836.06;4965302;28;20200;-65
2022/04/16 08:44:38;;;;;;;7.97;5.05;;;;;;;17.13;29.50;94843.03;4960610;28;20712;-58
2022/04/16 08:47:05;;;;;;;8.75;4.70;;;;;;;17.10;29.47;94835.41;4962600;28;20285;-59
2022/04/16 08:49:33;;;;;;;7.03;4.38;;;;;;;17.15;28.85;94834.84;4963527;28;20215;-63
2022/04/16 08:51:59;;;;;;;7.70;4.22;;;;;;;17.23;29.48;94825.88;4970175;28;20227;-61
2022/04/16 08:54:25;;;;;;;5.50;4.68;;;;;;;17.36;28.69;94816.13;4986801;28;20266;-58
2022/04/16 08:56:51;;;;;;;5.97;4.22;;;;;;;17.38;29.92;94821.25;4972770;28;20200;-69
2022/04/16 08:59:16;;;;;;;8.40;4.38;;;;;;;17.49;29.57;94810.06;4961204;28;20243;-63
2022/04/16 09:01:42;;;;;;;6.80;4.68;;;;;;;17.57;27.88;94807.22;4959821;28;20316;-62
2022/04/16 09:04:21;;;;;;;6.10;4.32;;;;;;;17.72;28.63;94807.06;4959558;28;20316;-62
2022/04/16 09:07:00;;;;;;;6.28;4.30;;;;;;;17.81;29.75;94802.41;4963864;28;20813;-66
2022/04/16 09:09:26;;;;;;;9.18;4.78;;;;;;;17.83;28.94;94800.38;4943472;28;20719;-70
2022/04/16 09:11:52;;;;;;;6.72;4.40;;;;;;;17.93;28.10;94797.28;4966480;28;20215;-58
2022/04/16 09:14:17;;;;;;;4.85;4.30;;;;;;;17.94;29.43;94791.78;4978370;28;20294;-65
2022/04/16 09:16:43;;;;;;;4.93;4.25;;;;;;;18.20;30.32;94791.00;4964922;28;20228;-66
2022/04/16 09:19:21;;;;;;;6.22;4.88;;;;;;;18.31;28.94;94789.56;4963986;28;20235;-59
2022/04/16 09:21:47;;;;;;;5.32;4.28;;;;;;;18.65;27.77;94790.34;4941334;28;20691;-60
2022/04/16 09:24:12;;;;;;;8.45;4.60;;;;;;;18.73;27.56;94782.94;4944556;28;20211;-58
2022/04/16 09:26:39;;;;;;;6.88;4.30;;;;;;;18.71;26.45;94778.84;4986398;28;20250;-64
2022/04/16 09:29:13;;;;;;;6.68;4.63;;;;;;;18.70;28.26;94777.22;4969044;28;20242;-70
2022/04/16 09:31:40;;;;;;;6.93;4.43;;;;;;;18.73;28.37;94776.78;4968418;28;20220;-62
2022/04/16 09:34:07;;;;;;;8.00;4.55;;;;;;;18.92;26.70;94770.66;4974445;28;20224;-66
2022/04/16 09:36:38;;;;;;;8.20;4.07;;;;;;;19.06;28.07;94776.75;4954501;28;20619;-61
2022/04/16 09:39:05;;;;;;;8.40;4.30;;;;;;;19.15;27.62;94780.00;4976960;28;20758;-66
2022/04/16 09:41:35;;;;;;;5.75;4.10;;;;;;;19.18;26.14;94777.72;4984292;28;20224;-70
2022/04/16 09:44:02;;;;;;;7.25;4.90;;;;;;;19.21;27.46;94773.81;4978263;28;20224;-71
2022/04/16 09:46:29;;;;;;;5.47;4.38;;;;;;;19.52;26.41;94769.59;4965518;28;20815;-59
2022/04/16 09:49:02;;;;;;;6.30;4.75;;;;;;;19.75;25.99;94764.56;4948944;28;21059;-58
2022/04/16 09:51:31;;;;;;;6.43;4.35;;;;;;;19.93;25.38;94768.34;4946096;28;20566;-64
2022/04/16 09:53:58;;;;;;;5.95;4.25;;;;;;;19.97;26.95;94766.91;4972331;28;20200;-64
2022/04/16 09:56:27;;;;;;;6.72;4.40;;;;;;;20.04;26.13;94762.31;4978066;28;20231;-58
2022/04/16 09:58:55;;;;;;;8.85;4.60;;;;;;;19.99;25.95;94765.66;4976512;28;20235;-58
2022/04/16 10:01:22;;;;;;;8.73;4.40;;;;;;;20.24;24.86;94757.66;4957586;28;20229;-66
2022/04/16 10:03:51;;;;;;;8.55;4.88;;;;;;;20.49;24.99;94754.13;4974147;28;20227;-67
2022/04/16 10:06:16;;;;;;;8.07;4.82;;;;;;;20.62;24.57;94753.25;4965118;28;20205;-67
2022/04/16 10:08:43;;;;;;;9.10;4.45;;;;;;;20.69;24.50;94762.00;4962798;28;20212;-66
2022/04/16 10:11:19;;;;;;;6.43;5.30;;;;;;;20.88;24.16;94749.47;4973883;28;20343;-67
2022/04/16 10:13:58;;;;;;;5.90;5.05;;;;;;;21.03;25.69;94749.91;4965057;28;20287;-66
2022/04/16 10:16:46;;;;;;;5.13;4.50;;;;;;;21.28;24.60;94747.16;4969983;28;20230;-66
2022/04/16 10:19:18;;;;;;;6.28;4.93;;;;;;;21.45;23.94;94750.06;4969289;28;20224;-67
2022/04/16 10:21:44;;;;;;;8.07;5.03;;;;;;;21.54;23.72;94738.03;4966209;28;20235;-67
2022/04/16 10:24:09;;;;;;;6.03;4.57;;;;;;;21.26;23.24;94740.41;4966807;28;20212;-67
2022/04/16 10:26:39;;;;;;;7.70;4.93;;;;;;;21.43;23.57;94738.75;4977278;28;20231;-66
2022/04/16 10:29:04;;;;;;;10.00;4.57;;;;;;;21.56;23.73;94732.44;4978422;28;20551;-67
2022/04/16 10:31:32;;;;;;;7.22;4.63;;;;;;;21.70;22.92;94735.72;4965088;28;20243;-67
2022/04/16 10:34:05;;;;;;;6.03;4.63;;;;;;;21.63;24.06;94719.78;4970817;28;20331;-66
2022/04/16 10:36:32;;;;;;;6.55;4.72;;;;;;;21.82;22.81;94725.88;4976605;28;20244;-66
2022/04/16 10:38:59;;;;;;;7.88;4.80;;;;;;;21.81;23.67;94732.25;4967975;28;20218;-66
2022/04/16 10:41:27;;;;;;;8.38;5.53;;;;;;;22.23;23.10;94718.88;4962609;28;20255;-66
2022/04/16 10:43:59;;;;;;;7.10;4.65;;;;;;;22.32;22.83;94719.34;4967176;28;20252;-67
2022/04/16 10:46:48;;;;;;;8.02;5.28;;;;;;;22.23;22.38;94727.72;4953524;28;20232;-66
2022/04/16 10:49:19;;;;;;;10.70;6.20;;;;;;;22.16;22.49;94720.81;4966305;28;20239;-67
2022/04/16 10:51:45;;;;;;;6.00;4.93;;;;;;;21.98;22.27;94717.19;4959572;28;20254;-66
2022/04/16 10:54:12;;;;;;;9.85;5.05;;;;;;;21.94;23.25;94716.00;4968107;28;20231;-64
2022/04/16 10:56:40;;;;;;;6.10;4.60;;;;;;;22.10;22.62;94711.03;4982329;28;20215;-66
2022/04/16 10:59:07;;;;;;;6.80;4.82;;;;;;;22.35;23.63;94706.34;4964176;28;20232;-67
2022/04/16 11:01:34;;;;;;;5.93;4.93;;;;;;;22.60;22.27;94711.44;4967078;28;20232;-67
2022/04/16 11:04:10;;;;;;;8.68;4.60;;;;;;;22.52;22.96;94711.00;4965933;28;20622;-67
2022/04/16 11:06:36;;;;;;;6.85;4.70;;;;;;;22.66;22.24;94713.19;4963857;28;20220;-66
2022/04/16 11:09:02;;;;;;;5.70;4.72;;;;;;;22.60;22.84;94708.75;4960470;28;20223;-67
2022/04/16 11:11:28;;;;;;;6.72;4.82;;;;;;;22.64;22.41;94709.09;4979691;28;20586;-67
2022/04/16 11:13:56;;;;;;;7.40;4.63;;;;;;;22.59;23.05;94709.00;4971089;28;20223;-68
2022/04/16 11:16:22;;;;;;;6.18;4.82;;;;;;;22.80;22.21;94712.94;4964173;28;20278;-68
2022/04/16 11:18:48;;;;;;;4.53;4.10;;;;;;;22.76;22.60;94701.88;4955511;28;20629;-68
2022/04/16 11:21:20;;;;;;;6.70;4.63;;;;;;;22.78;21.99;94702.47;4948012;28;20204;-68
2022/04/16 11:23:47;;;;;;;8.15;4.88;;;;;;;22.82;22.16;94698.25;4941795;28;20205;-67
2022/04/16 11:34:41;;;;;;;7.05;4.63;;;;;;;23.04;21.74;94681.56;4964780;28;20289;-67
2022/04/16 11:37:07;;;;;;;7.63;4.15;;;;;;;23.17;23.18;94686.66;4965018;28;20224;-67
2022/04/16 11:39:32;;;;;;;5.20;4.57;;;;;;;23.66;22.04;94684.38;4963783;28;20220;-67
2022/04/16 11:41:59;;;;;;;6.15;4.55;;;;;;;24.02;20.46;94685.00;4964616;28;20200;-72
2022/04/16 11:44:55;;;;;;;6.47;4.13;;;;;;;24.19;22.54;94669.72;4962797;28;20224;-70
2022/04/16 11:47:23;;;;;;;6.00;4.45;;;;;;;24.45;21.04;94672.78;4908984;29;20244;-72
2022/04/16 11:50:01;;;;;;;6.00;4.95;;;;;;;24.46;20.77;94668.22;4905126;29;20229;-72
2022/04/16 11:52:30;;;;;;;5.25;4.15;;;;;;;24.14;21.85;94664.25;4907736;29;20248;-72
2022/04/16 11:55:19;;;;;;;7.35;4.68;;;;;;;24.46;20.57;94663.69;4908303;29;20249;-70
2022/04/16 11:57:54;;;;;;;6.15;4.00;;;;;;;24.34;20.98;94654.88;4907006;29;20277;-71